createdAt,value
2022-09-06T00:00:57.090Z,17.05
2022-09-06T00:03:24.375Z,18.80
2022-09-06T00:05:51.587Z,19.20
2022-09-06T00:08:18.762Z,16.83
2022-09-06T00:10:45.929Z,18.25
2022-09-06T00:13:13.428Z,16.10
2022-09-06T00:15:40.687Z,17.50
2022-09-06T00:18:08.631Z,16.02
2022-09-06T00:20:36.679Z,16.48
2022-09-06T00:23:05.632Z,15.60
2022-09-06T00:25:33.275Z,16.05
2022-09-06T00:28:01.594Z,16.60
2022-09-06T00:30:28.965Z,15.10
2022-09-06T00:32:56.190Z,16.15
2022-09-06T00:35:24.752Z,16.08
2022-09-06T00:37:52.456Z,15.30
2022-09-06T00:40:19.649Z,15.82
2022-09-06T00:42:46.801Z,16.20
2022-09-06T00:45:13.977Z,16.73
2022-09-06T00:47:41.319Z,16.77
2022-09-06T00:50:08.628Z,16.80
2022-09-06T00:52:35.749Z,16.30
2022-09-06T00:55:02.887Z,15.85
2022-09-06T00:57:32.101Z,17.67
2022-09-06T00:59:59.253Z,15.98
2022-09-06T01:02:26.528Z,16.23
2022-09-06T01:04:54.094Z,16.27
2022-09-06T01:07:21.243Z,15.98
2022-09-06T01:09:52.890Z,16.98
2022-09-06T01:12:23.137Z,17.30
2022-09-06T01:14:56.267Z,15.77
2022-09-06T01:17:32.402Z,19.05
2022-09-06T01:20:25.700Z,15.57
2022-09-06T01:22:52.854Z,17.77
2022-09-06T01:25:43.282Z,18.10
2022-09-06T01:28:25.497Z,20.77
2022-09-06T01:31:01.614Z,24.10
2022-09-06T01:33:39.051Z,24.48
2022-09-06T01:36:07.738Z,21.27
2022-09-06T01:38:35.165Z,22.70
2022-09-06T01:41:02.331Z,21.83
2022-09-06T01:43:31.966Z,27.23
2022-09-06T01:45:59.120Z,22.13
2022-09-06T01:48:45.288Z,24.38
2022-09-06T01:51:15.409Z,20.08
2022-09-06T01:53:47.289Z,20.10
2022-09-06T01:56:14.410Z,18.75
2022-09-06T01:58:41.557Z,19.35
2022-09-06T02:01:14.935Z,19.25
2022-09-06T02:03:49.770Z,18.02
2022-09-06T02:06:21.934Z,20.75
2022-09-06T02:08:49.879Z,20.80
2022-09-06T02:11:17.002Z,29.60
2022-09-06T02:13:47.203Z,43.70
2022-09-06T02:16:14.792Z,54.13
2022-09-06T02:18:45.429Z,39.22
2022-09-06T02:21:13.910Z,40.35
2022-09-06T02:23:41.146Z,47.10
2022-09-06T02:26:37.875Z,34.85
2022-09-06T02:29:05.247Z,35.35
2022-09-06T02:31:33.574Z,34.72
2022-09-06T02:34:00.723Z,35.10
2022-09-06T02:36:27.869Z,34.78
2022-09-06T02:38:55.031Z,39.45
2022-09-06T02:41:23.130Z,37.05
2022-09-06T02:43:50.369Z,43.00
2022-09-06T02:46:17.669Z,43.92
2022-09-06T02:48:44.887Z,43.83
2022-09-06T02:51:12.015Z,54.45
2022-09-06T02:53:39.649Z,52.53
2022-09-06T02:56:06.835Z,49.03
2022-09-06T02:58:34.005Z,62.17
2022-09-06T03:01:01.177Z,63.67
2022-09-06T03:03:28.571Z,52.33
2022-09-06T03:05:55.706Z,51.15
2022-09-06T03:08:23.459Z,55.13
2022-09-06T03:10:51.069Z,50.22
2022-09-06T03:13:18.225Z,52.33
2022-09-06T03:15:45.394Z,44.72
2022-09-06T03:18:12.552Z,51.60
2022-09-06T03:20:39.682Z,48.65
2022-09-06T03:23:06.810Z,45.50
2022-09-06T03:25:33.985Z,43.33
2022-09-06T03:28:01.150Z,37.08
2022-09-06T03:30:28.319Z,42.03
2022-09-06T03:32:55.507Z,44.38
2022-09-06T03:35:22.646Z,44.65
2022-09-06T03:37:49.805Z,42.65
2022-09-06T03:40:17.103Z,45.03
2022-09-06T03:42:44.241Z,45.80
2022-09-06T03:45:11.477Z,47.85
2022-09-06T03:47:38.720Z,45.78
2022-09-06T03:50:06.314Z,48.78
2022-09-06T03:52:33.471Z,39.22
2022-09-06T03:55:00.638Z,34.80
2022-09-06T03:57:27.766Z,33.30
2022-09-06T03:59:54.920Z,36.05
2022-09-06T04:02:22.156Z,41.15
2022-09-06T04:04:49.322Z,36.88
2022-09-06T04:07:16.512Z,33.38
2022-09-06T04:09:43.674Z,34.80
2022-09-06T04:12:10.851Z,32.80
2022-09-06T04:14:37.983Z,34.88
2022-09-06T04:17:05.202Z,34.03
2022-09-06T04:19:32.331Z,34.15
2022-09-06T04:21:59.460Z,29.88
2022-09-06T04:24:26.620Z,32.88
2022-09-06T04:26:53.764Z,32.20
2022-09-06T04:29:20.918Z,30.38
2022-09-06T04:31:48.175Z,31.30
2022-09-06T04:34:16.431Z,35.83
2022-09-06T04:36:47.690Z,32.78
2022-09-06T04:39:15.561Z,33.40
2022-09-06T04:41:42.809Z,30.95
2022-09-06T04:44:09.959Z,30.60
2022-09-06T04:46:37.239Z,34.53
2022-09-06T04:49:04.381Z,26.85
2022-09-06T04:51:31.649Z,31.25
2022-09-06T04:53:58.841Z,28.90
2022-09-06T04:56:26.453Z,31.42
2022-09-06T04:58:54.640Z,33.15
2022-09-06T05:01:22.026Z,34.53
2022-09-06T05:03:49.248Z,35.28
2022-09-06T05:06:23.186Z,34.42
2022-09-06T05:08:50.421Z,35.25
2022-09-06T05:11:17.744Z,31.40
2022-09-06T05:13:45.846Z,32.70
2022-09-06T05:16:13.084Z,32.42
2022-09-06T05:18:40.266Z,28.67
2022-09-06T05:21:07.710Z,31.30
2022-09-06T05:23:34.895Z,32.78
2022-09-06T05:26:02.118Z,31.63
2022-09-06T05:28:29.481Z,34.25
2022-09-06T05:31:12.473Z,29.75
2022-09-06T05:33:39.731Z,34.47
2022-09-06T05:36:07.251Z,42.38
2022-09-06T05:38:34.430Z,81.07
2022-09-06T05:41:01.602Z,107.82
2022-09-06T05:43:28.768Z,93.20
2022-09-06T05:45:55.958Z,78.80
2022-09-06T05:48:23.273Z,66.30
2022-09-06T05:50:59.831Z,41.55
2022-09-06T05:53:26.990Z,25.73
2022-09-06T05:55:54.134Z,16.60
2022-09-06T05:58:21.334Z,13.60
2022-09-06T06:00:48.557Z,17.00
2022-09-06T06:03:15.752Z,30.23
2022-09-06T06:05:47.218Z,35.38
2022-09-06T06:08:14.389Z,28.58
2022-09-06T06:10:41.607Z,28.45
2022-09-06T06:13:08.774Z,26.63
2022-09-06T06:15:35.925Z,19.48
2022-09-06T06:18:03.061Z,21.10
2022-09-06T06:20:30.208Z,20.55
2022-09-06T06:22:57.982Z,21.42
2022-09-06T06:25:26.264Z,21.13
2022-09-06T06:27:53.624Z,19.90
2022-09-06T06:30:21.097Z,23.05
2022-09-06T06:32:48.227Z,22.52
2022-09-06T06:35:15.470Z,16.73
2022-09-06T06:37:42.648Z,20.55
2022-09-06T06:40:10.131Z,18.52
2022-09-06T06:42:37.372Z,14.93
2022-09-06T06:45:04.698Z,14.45
2022-09-06T06:47:31.874Z,14.07
2022-09-06T06:49:59.000Z,14.35
2022-09-06T06:52:26.206Z,14.25
2022-09-06T06:54:53.399Z,11.88
2022-09-06T06:57:20.543Z,12.02
2022-09-06T06:59:47.720Z,11.13
2022-09-06T07:02:16.532Z,11.32
2022-09-06T07:04:43.797Z,12.82
2022-09-06T07:12:45.411Z,9.43
2022-09-06T07:15:12.565Z,8.63
2022-09-06T07:17:39.776Z,9.18
2022-09-06T07:20:15.004Z,8.77
2022-09-06T07:22:42.601Z,9.93
2022-09-06T07:25:10.015Z,8.57
2022-09-06T07:27:52.549Z,7.57
2022-09-06T07:30:20.187Z,8.02
2022-09-06T07:32:47.553Z,8.25
2022-09-06T07:35:14.696Z,6.88
2022-09-06T07:37:41.906Z,11.75
2022-09-06T07:40:09.736Z,7.80
2022-09-06T07:42:37.012Z,8.32
2022-09-06T07:45:04.898Z,7.95
2022-09-06T07:55:39.076Z,31.35
2022-09-06T07:58:06.244Z,12.77
2022-09-06T08:00:33.393Z,9.02
2022-09-06T08:03:00.551Z,10.60
2022-09-06T08:11:02.010Z,8.32
2022-09-06T08:13:29.423Z,7.68
2022-09-06T08:16:03.646Z,11.27
2022-09-06T08:18:32.140Z,6.43
2022-09-06T08:21:12.872Z,6.72
2022-09-06T08:23:50.560Z,6.47
2022-09-06T08:26:18.026Z,6.47
2022-09-06T08:28:45.361Z,6.40
2022-09-06T08:31:13.419Z,7.93
2022-09-06T08:33:40.648Z,9.88
2022-09-06T08:36:07.961Z,7.00
2022-09-06T08:38:35.249Z,6.32
2022-09-06T08:41:08.169Z,6.28
2022-09-06T08:43:35.414Z,8.77
2022-09-06T08:46:02.605Z,6.03
2022-09-06T08:48:30.351Z,6.30
2022-09-06T08:51:09.947Z,7.53
2022-09-06T08:53:38.019Z,5.78
2022-09-06T08:56:06.157Z,6.68
2022-09-06T08:58:36.265Z,5.40
2022-09-06T09:01:04.296Z,6.15
2022-09-06T09:03:38.413Z,5.95
2022-09-06T09:06:06.547Z,7.22
2022-09-06T09:08:37.353Z,8.38
2022-09-06T09:11:05.393Z,7.57
2022-09-06T09:13:47.764Z,7.78
2022-09-06T09:16:15.383Z,6.85
2022-09-06T09:18:43.305Z,6.60
2022-09-06T09:21:10.503Z,6.88
2022-09-06T09:23:37.665Z,7.45
2022-09-06T09:26:11.702Z,5.68
2022-09-06T09:28:38.861Z,9.05
2022-09-06T09:31:07.343Z,6.10
2022-09-06T09:33:35.595Z,10.30
2022-09-06T09:36:03.214Z,8.90
2022-09-06T09:38:31.081Z,8.30
2022-09-06T09:41:04.835Z,6.72
2022-09-06T09:43:32.775Z,8.23
2022-09-06T09:46:09.924Z,6.60
2022-09-06T09:48:37.180Z,8.45
2022-09-06T09:51:25.480Z,8.23
2022-09-06T09:53:54.802Z,9.45
2022-09-06T09:56:34.129Z,7.40
2022-09-06T09:59:01.248Z,5.35
2022-09-06T10:01:30.202Z,5.65
2022-09-06T10:07:10.241Z,5.55
2022-09-06T10:09:38.890Z,8.73
2022-09-06T10:12:06.192Z,6.80
2022-09-06T10:14:34.362Z,6.50
2022-09-06T10:17:01.607Z,6.88
2022-09-06T10:19:45.605Z,27.88
2022-09-06T10:22:15.038Z,66.10
2022-09-06T10:25:09.802Z,8.68
2022-09-06T10:27:39.932Z,11.55
2022-09-06T10:30:14.517Z,9.75
2022-09-06T10:32:42.605Z,5.85
2022-09-06T10:35:12.569Z,5.75
2022-09-06T10:37:48.599Z,5.78
2022-09-06T10:40:28.377Z,6.65
2022-09-06T10:42:56.531Z,5.07
2022-09-06T10:45:29.820Z,5.80
2022-09-06T10:48:14.412Z,6.53
2022-09-06T10:51:00.562Z,5.10
2022-09-06T10:53:39.985Z,7.10
2022-09-06T10:56:11.852Z,5.70
2022-09-06T11:01:58.390Z,4.90
2022-09-06T11:04:30.748Z,5.75
2022-09-06T11:06:59.123Z,7.07
2022-09-06T11:09:36.427Z,7.68
2022-09-06T11:12:08.380Z,6.22
2022-09-06T11:14:35.555Z,5.82
2022-09-06T11:17:18.508Z,6.40
2022-09-06T11:20:01.783Z,5.97
2022-09-06T11:22:28.924Z,6.07
2022-09-06T11:25:22.266Z,6.13
2022-09-06T11:27:53.975Z,6.68
2022-09-06T11:30:25.613Z,6.30
2022-09-06T11:32:53.254Z,5.68
2022-09-06T11:35:28.569Z,5.00
2022-09-06T11:37:59.573Z,5.20
2022-09-06T11:40:28.659Z,7.38
2022-09-06T11:42:56.985Z,6.30
2022-09-06T11:45:42.554Z,6.55
2022-09-06T11:48:36.493Z,5.63
2022-09-06T11:51:03.712Z,5.47
2022-09-06T11:53:51.086Z,8.65
2022-09-06T11:56:44.327Z,5.88
2022-09-06T11:59:14.216Z,4.90
2022-09-06T12:01:41.373Z,5.43
2022-09-06T12:04:09.964Z,5.65
2022-09-06T12:06:40.728Z,6.40
2022-09-06T12:09:26.459Z,5.88
2022-09-06T12:11:53.589Z,4.13
2022-09-06T12:14:36.034Z,5.88
2022-09-06T12:17:07.597Z,5.65
2022-09-06T12:19:47.063Z,7.82
2022-09-06T12:22:41.181Z,8.73
2022-09-06T12:25:17.958Z,5.57
2022-09-06T12:28:03.253Z,4.72
2022-09-06T12:30:37.071Z,7.90
2022-09-06T12:33:10.320Z,8.07
2022-09-06T12:38:25.326Z,5.32
2022-09-06T12:40:56.411Z,4.68
2022-09-06T12:43:23.544Z,6.85
2022-09-06T12:45:51.211Z,6.40
2022-09-06T12:48:28.954Z,7.50
2022-09-06T12:51:02.474Z,5.20
2022-09-06T12:53:31.564Z,4.90
2022-09-06T12:56:08.555Z,5.75
2022-09-06T12:58:36.204Z,4.18
2022-09-06T13:01:09.543Z,4.43
2022-09-06T13:03:41.290Z,4.60
2022-09-06T13:06:08.760Z,5.28
2022-09-06T13:08:37.225Z,4.38
2022-09-06T13:11:04.506Z,8.43
2022-09-06T13:13:31.644Z,7.80
2022-09-06T13:15:58.806Z,6.80
2022-09-06T13:18:32.190Z,6.07
2022-09-06T13:21:11.552Z,6.05
2022-09-06T13:23:42.576Z,4.72
2022-09-06T13:26:09.689Z,8.43
2022-09-06T13:28:36.816Z,7.22
2022-09-06T13:31:14.347Z,4.55
2022-09-06T13:33:41.915Z,5.38
2022-09-06T13:36:16.256Z,5.40
2022-09-06T13:38:43.483Z,6.70
2022-09-06T13:41:25.803Z,5.38
2022-09-06T13:43:58.718Z,5.13
2022-09-06T13:46:25.909Z,5.07
2022-09-06T13:48:56.158Z,6.35
2022-09-06T13:51:23.404Z,7.32
2022-09-06T13:53:50.808Z,4.75
2022-09-06T13:56:17.956Z,6.78
2022-09-06T13:58:45.203Z,4.43
2022-09-06T14:01:14.230Z,4.88
2022-09-06T14:03:42.174Z,4.65
2022-09-06T14:06:09.531Z,4.78
2022-09-06T14:08:56.073Z,4.95
2022-09-06T14:11:25.428Z,7.38
2022-09-06T14:13:52.994Z,4.53
2022-09-06T14:16:20.458Z,5.57
2022-09-06T14:18:47.739Z,5.35
2022-09-06T14:21:14.898Z,4.60
2022-09-06T14:23:42.231Z,5.70
2022-09-06T14:26:10.024Z,7.72
2022-09-06T14:28:37.212Z,6.97
2022-09-06T14:31:33.627Z,4.90
2022-09-06T14:34:01.428Z,6.43
2022-09-06T14:36:31.765Z,4.82
2022-09-06T14:38:59.481Z,4.20
2022-09-06T14:41:26.714Z,3.70
2022-09-06T14:43:54.949Z,3.67
2022-09-06T14:46:22.573Z,4.07
2022-09-06T14:48:49.890Z,10.38
2022-09-06T14:51:20.810Z,5.30
2022-09-06T14:53:48.269Z,4.38
2022-09-06T14:56:15.614Z,6.10
2022-09-06T14:58:43.001Z,7.50
2022-09-06T15:01:17.124Z,5.10
2022-09-06T15:03:47.061Z,5.85
2022-09-06T15:06:14.208Z,5.55
2022-09-06T15:08:41.358Z,9.88
2022-09-06T15:11:08.968Z,7.63
2022-09-06T15:13:37.292Z,9.15
2022-09-06T15:16:05.193Z,9.07
2022-09-06T15:18:33.149Z,6.72
2022-09-06T15:21:09.015Z,5.22
2022-09-06T15:23:36.363Z,7.85
2022-09-06T15:26:03.614Z,5.90
2022-09-06T15:28:30.772Z,6.32
2022-09-06T15:30:57.961Z,4.72
2022-09-06T15:33:25.193Z,10.65
2022-09-06T15:35:55.513Z,164.40
2022-09-06T15:38:22.669Z,35.38
2022-09-06T15:40:50.678Z,10.38
2022-09-06T15:43:18.071Z,9.95
2022-09-06T15:45:49.367Z,15.57
2022-09-06T15:48:16.983Z,11.00
2022-09-06T15:50:51.642Z,6.78
2022-09-06T15:53:19.397Z,6.32
2022-09-06T15:55:56.177Z,5.05
2022-09-06T15:58:26.738Z,6.65
2022-09-06T16:01:00.628Z,10.23
2022-09-06T16:03:28.120Z,5.50
2022-09-06T16:08:42.979Z,6.82
2022-09-06T16:11:13.854Z,5.07
2022-09-06T16:13:41.318Z,5.03
2022-09-06T16:16:09.345Z,5.95
2022-09-06T16:18:37.050Z,5.45
2022-09-06T16:21:05.458Z,7.70
2022-09-06T16:23:32.697Z,7.45
2022-09-06T16:25:59.905Z,6.50
2022-09-06T16:28:30.653Z,8.38
2022-09-06T16:31:01.454Z,10.45
2022-09-06T16:33:28.784Z,5.93
2022-09-06T16:35:55.906Z,5.32
2022-09-06T16:38:23.222Z,7.25
2022-09-06T16:40:50.485Z,4.68
2022-09-06T16:43:17.644Z,5.53
2022-09-06T16:45:44.826Z,6.05
2022-09-06T16:48:12.021Z,7.57
2022-09-06T16:50:39.144Z,7.70
2022-09-06T16:53:06.336Z,8.18
2022-09-06T16:55:34.005Z,7.90
2022-09-06T16:58:01.153Z,11.30
2022-09-06T17:00:28.551Z,14.00
2022-09-06T17:02:56.400Z,13.88
2022-09-06T17:05:23.719Z,14.48
2022-09-06T17:07:51.006Z,13.02
2022-09-06T17:10:18.763Z,12.82
2022-09-06T17:12:45.930Z,12.18
2022-09-06T17:15:13.145Z,12.20
2022-09-06T17:17:40.401Z,12.02
2022-09-06T17:20:07.740Z,11.70
2022-09-06T17:22:34.962Z,14.20
2022-09-06T17:25:03.221Z,12.60
2022-09-06T17:27:30.559Z,11.30
2022-09-06T17:29:57.729Z,14.40
2022-09-06T17:32:25.068Z,12.85
2022-09-06T17:34:52.209Z,13.68
2022-09-06T17:37:19.389Z,14.13
2022-09-06T17:39:46.600Z,22.13
2022-09-06T17:42:13.801Z,25.90
2022-09-06T17:44:41.022Z,20.27
2022-09-06T17:47:12.822Z,13.27
2022-09-06T17:49:41.108Z,15.57
2022-09-06T17:52:08.256Z,22.67
2022-09-06T17:54:35.458Z,19.63
2022-09-06T17:57:02.613Z,19.23
2022-09-06T17:59:35.100Z,18.80
2022-09-06T18:02:03.089Z,20.85
2022-09-06T18:04:30.282Z,23.13
2022-09-06T18:06:57.506Z,22.58
2022-09-06T18:09:24.667Z,23.85
2022-09-06T18:11:51.822Z,20.77
2022-09-06T18:14:20.920Z,23.60
2022-09-06T18:16:49.501Z,21.30
2022-09-06T18:19:18.784Z,18.65
2022-09-06T18:21:46.055Z,19.58
2022-09-06T18:24:16.231Z,17.35
2022-09-06T18:26:43.420Z,18.10
2022-09-06T18:29:14.988Z,20.38
2022-09-06T18:31:42.844Z,23.83
2022-09-06T18:34:10.121Z,25.63
2022-09-06T18:36:37.754Z,21.50
2022-09-06T18:39:05.136Z,20.85
2022-09-06T18:41:53.905Z,21.42
2022-09-06T18:44:21.585Z,21.23
2022-09-06T18:46:48.942Z,11.73
2022-09-06T18:49:17.823Z,14.95
2022-09-06T18:51:45.693Z,15.50
2022-09-06T18:54:13.183Z,20.88
2022-09-06T18:56:40.330Z,19.50
2022-09-06T18:59:08.600Z,15.07
2022-09-06T19:01:36.559Z,21.05
2022-09-06T19:04:04.039Z,18.77
2022-09-06T19:06:31.618Z,16.77
2022-09-06T19:08:59.792Z,19.25
2022-09-06T19:11:26.967Z,20.63
2022-09-06T19:13:54.567Z,22.80
2022-09-06T19:16:22.338Z,25.92
2022-09-06T19:18:49.720Z,24.88
2022-09-06T19:21:17.787Z,24.55
2022-09-06T19:23:45.706Z,21.92
2022-09-06T19:26:18.086Z,28.17
2022-09-06T19:29:01.070Z,32.22
2022-09-06T19:31:29.549Z,26.90
2022-09-06T19:33:56.833Z,31.70
2022-09-06T19:36:24.226Z,35.25
2022-09-06T19:39:03.086Z,42.80
2022-09-06T19:41:31.545Z,40.40
2022-09-06T19:43:58.992Z,40.17
2022-09-06T19:46:26.680Z,35.20
2022-09-06T19:48:54.195Z,36.88
2022-09-06T19:51:21.598Z,21.80
2022-09-06T19:53:59.780Z,15.57
2022-09-06T19:56:31.691Z,21.23
2022-09-06T19:58:59.562Z,15.70
2022-09-06T20:01:29.259Z,24.58
2022-09-06T20:03:56.649Z,51.60
2022-09-06T20:06:23.780Z,29.38
2022-09-06T20:08:51.722Z,17.33
2022-09-06T20:11:19.242Z,18.73
2022-09-06T20:13:46.450Z,19.75
2022-09-06T20:16:13.768Z,16.63
2022-09-06T20:18:41.101Z,19.05
2022-09-06T20:21:08.526Z,16.45
2022-09-06T20:23:35.892Z,18.02
2022-09-06T20:26:03.104Z,19.05
2022-09-06T20:28:30.528Z,17.77
2022-09-06T20:31:02.335Z,29.55
2022-09-06T20:33:29.678Z,27.70
2022-09-06T20:35:57.245Z,26.10
2022-09-06T20:38:24.645Z,18.48
2022-09-06T20:41:02.794Z,21.65
2022-09-06T20:43:33.551Z,16.33
2022-09-06T20:46:01.717Z,19.20
2022-09-06T20:48:28.970Z,21.65
2022-09-06T20:50:56.795Z,20.85
2022-09-06T20:53:23.936Z,23.08
2022-09-06T20:56:01.041Z,26.35
2022-09-06T20:58:28.358Z,27.92
2022-09-06T21:00:56.523Z,24.45
2022-09-06T21:03:23.947Z,24.67
2022-09-06T21:05:51.177Z,23.83
2022-09-06T21:08:18.333Z,22.85
2022-09-06T21:10:45.562Z,21.63
2022-09-06T21:13:12.753Z,22.88
2022-09-06T21:15:43.005Z,23.08
2022-09-06T21:18:10.261Z,21.08
2022-09-06T21:20:37.478Z,23.65
2022-09-06T21:23:04.721Z,24.08
2022-09-06T21:25:31.920Z,21.55
2022-09-06T21:27:59.082Z,25.00
2022-09-06T21:30:26.247Z,20.83
2022-09-06T21:32:54.042Z,20.08
2022-09-06T21:35:21.296Z,19.27
2022-09-06T21:37:48.493Z,15.80
2022-09-06T21:40:16.337Z,17.85
2022-09-06T21:42:43.448Z,17.60
2022-09-06T21:45:10.820Z,18.42
2022-09-06T21:47:38.444Z,15.95
2022-09-06T21:50:05.756Z,15.85
2022-09-06T21:52:32.891Z,15.68
2022-09-06T21:55:00.116Z,16.45
2022-09-06T21:57:27.270Z,17.00
2022-09-06T21:59:54.399Z,18.25
2022-09-06T22:02:21.993Z,17.60
2022-09-06T22:04:50.630Z,14.70
2022-09-06T22:07:17.789Z,15.23
2022-09-06T22:09:44.964Z,16.65
2022-09-06T22:12:12.085Z,14.98
2022-09-06T22:14:39.338Z,15.15
2022-09-06T22:17:06.499Z,18.08
2022-09-06T22:19:33.640Z,14.98
2022-09-06T22:22:00.782Z,15.57
2022-09-06T22:24:27.943Z,20.73
2022-09-06T22:26:55.107Z,20.63
2022-09-06T22:29:22.350Z,18.83
2022-09-06T22:31:49.544Z,18.02
2022-09-06T22:34:16.741Z,15.93
2022-09-06T22:36:43.872Z,19.40
2022-09-06T22:39:11.093Z,15.88
2022-09-06T22:41:38.294Z,16.10
2022-09-06T22:44:05.484Z,16.10
2022-09-06T22:46:32.905Z,19.50
2022-09-06T22:49:00.212Z,15.85
2022-09-06T22:51:27.401Z,15.95
2022-09-06T22:53:54.660Z,15.05
2022-09-06T22:56:21.808Z,18.45
2022-09-06T22:58:49.766Z,14.93
2022-09-06T23:01:17.258Z,13.75
2022-09-06T23:03:44.707Z,15.30
2022-09-06T23:06:12.069Z,14.85
2022-09-06T23:08:39.770Z,14.50
2022-09-06T23:11:07.523Z,13.52
2022-09-06T23:13:34.738Z,17.35
2022-09-06T23:16:06.354Z,15.93
2022-09-06T23:18:33.670Z,17.60
2022-09-06T23:21:04.393Z,16.90
2022-09-06T23:23:31.609Z,14.43
2022-09-06T23:26:03.292Z,16.67
2022-09-06T23:28:30.511Z,16.88
2022-09-06T23:30:58.420Z,13.82
2022-09-06T23:33:25.600Z,15.90
2022-09-06T23:35:54.843Z,15.18
2022-09-06T23:38:22.105Z,14.30
2022-09-06T23:40:49.302Z,16.35
2022-09-06T23:43:16.449Z,16.08
2022-09-06T23:45:43.627Z,15.32
2022-09-06T23:48:10.860Z,14.52
2022-09-06T23:50:37.986Z,18.23
2022-09-06T23:53:05.125Z,14.63
2022-09-06T23:55:32.246Z,14.98
2022-09-06T23:57:59.387Z,13.35
